Time;durP1;ratioP1;P1;durP2;ratioP2;P2;SDS_P1;SDS_P2;PMS_P1;PMS_P2;Temp;Humidity;BMP_temperature;BMP_pressure;BME280_temperature;BME280_humidity;BME280_pressure;Samples;Min_cycle;Max_cycle;Signal;HPM_P1;HPM_P2
2023/01/17 00:01:41;;;;;;;4.53;0.68;;;4.00;99.90;;;;;;5068543;28;20108;-37
2023/01/17 00:09:52;;;;;;;5.80;0.50;;;4.00;99.90;;;;;;5071536;28;20075;-39
2023/01/17 00:12:19;;;;;;;4.72;0.30;;;4.00;99.90;;;;;;5071273;28;20131;-36
2023/01/17 00:14:46;;;;;;;4.68;0.43;;;3.90;99.90;;;;;;5073283;28;20395;-37
2023/01/17 00:17:12;;;;;;;1.05;0.63;;;3.80;99.90;;;;;;5070681;28;20048;-37
2023/01/17 01:35:03;;;;;;;0.20;0.20;;;2.70;99.90;;;;;;5070115;28;20507;-36
2023/01/17 01:37:30;;;;;;;0.43;0.10;;;2.60;99.90;;;;;;5071984;28;20024;-38
2023/01/17 01:42:58;;;;;;;5.90;0.30;;;2.70;99.90;;;;;;5070172;28;20040;-37
2023/01/17 01:45:29;;;;;;;1.08;0.10;;;2.70;99.90;;;;;;5071630;28;20429;-34
2023/01/17 01:48:18;;;;;;;0.17;0.10;;;2.70;99.90;;;;;;5072809;28;20488;-32
2023/01/17 01:50:43;;;;;;;3.03;0.13;;;2.70;99.90;;;;;;5071963;28;20035;-30
2023/01/17 01:53:10;;;;;;;0.55;0.32;;;2.80;99.90;;;;;;5071880;28;20511;-37
2023/01/17 01:55:39;;;;;;;3.30;0.22;;;2.80;99.90;;;;;;5072106;28;20495;-35
2023/01/17 01:58:22;;;;;;;4.20;0.30;;;2.80;99.90;;;;;;5072580;28;20055;-36
2023/01/17 02:00:48;;;;;;;2.28;0.60;;;2.70;99.90;;;;;;5073025;28;20542;-35
2023/01/17 02:03:18;;;;;;;1.65;0.40;;;2.80;99.90;;;;;;5072358;28;20040;-40
2023/01/17 02:05:44;;;;;;;0.35;0.30;;;2.80;99.90;;;;;;5071865;28;20516;-36
2023/01/17 02:08:12;;;;;;;3.75;0.30;;;2.80;99.90;;;;;;5070970;28;20119;-35
2023/01/17 02:10:41;;;;;;;1.15;0.50;;;2.80;99.90;;;;;;5066693;28;20496;-36
2023/01/17 02:13:09;;;;;;;10.10;1.27;;;2.80;99.90;;;;;;5072386;28;20029;-35
2023/01/17 02:15:56;;;;;;;3.22;0.38;;;2.80;99.90;;;;;;5071835;28;20540;-38
2023/01/17 02:18:25;;;;;;;1.75;0.40;;;2.80;99.90;;;;;;5052126;28;20055;-34
2023/01/17 02:21:11;;;;;;;6.80;0.75;;;2.90;99.90;;;;;;5068768;28;20025;-34
2023/01/17 02:23:55;;;;;;;1.02;0.57;;;2.90;99.90;;;;;;5069421;28;20078;-36
2023/01/17 02:26:33;;;;;;;4.93;0.95;;;3.00;99.90;;;;;;5071157;28;20035;-35
2023/01/17 02:29:44;;;;;;;1.95;0.30;;;3.00;99.90;;;;;;5061206;28;20028;-33
2023/01/17 02:32:43;;;;;;;3.42;0.38;;;2.90;99.90;;;;;;5054529;28;20412;-37
2023/01/17 02:35:24;;;;;;;0.70;0.70;;;3.00;99.90;;;;;;5068094;28;20480;-38
2023/01/17 02:38:11;;;;;;;1.23;0.30;;;2.90;99.90;;;;;;5066796;28;20544;-34
2023/01/17 02:40:43;;;;;;;3.53;0.20;;;2.90;99.90;;;;;;5069605;28;20025;-32
2023/01/17 02:43:12;;;;;;;1.15;0.25;;;2.90;99.90;;;;;;5072640;28;20124;-31
2023/01/17 02:45:38;;;;;;;6.13;0.40;;;2.90;99.90;;;;;;5070961;28;20496;-36
2023/01/17 02:48:07;;;;;;;8.45;0.90;;;2.80;99.90;;;;;;5071341;28;20035;-36
2023/01/17 02:50:44;;;;;;;;;;;2.70;99.90;;;;;;5072109;28;20416;-39
2023/01/17 02:53:30;;;;;;;6.80;0.35;;;2.60;99.90;;;;;;5072168;28;20359;-34
2023/01/17 02:56:30;;;;;;;8.00;0.52;;;2.70;99.90;;;;;;5074414;28;20059;-36
2023/01/17 02:59:15;;;;;;;7.10;0.43;;;2.70;99.90;;;;;;5075762;28;20099;-36
2023/01/17 03:01:59;;;;;;;12.80;0.50;;;2.70;99.90;;;;;;5075713;28;20035;-36
2023/01/17 03:04:57;;;;;;;3.65;0.60;;;2.70;99.90;;;;;;5073884;28;20488;-35
2023/01/17 03:07:26;;;;;;;3.25;0.40;;;2.60;99.90;;;;;;5052674;28;20460;-38
2023/01/17 03:09:56;;;;;;;;;;;2.70;99.90;;;;;;5062596;28;20025;-36
2023/01/17 03:12:25;;;;;;;1.55;0.38;;;2.70;99.90;;;;;;5075353;28;19923;-36
2023/01/17 03:14:50;;;;;;;1.95;0.32;;;2.70;99.90;;;;;;5074555;28;20073;-37
2023/01/17 03:17:16;;;;;;;4.40;0.60;;;2.70;99.90;;;;;;5074510;28;20111;-37
2023/01/17 03:19:42;;;;;;;0.57;0.22;;;2.70;99.90;;;;;;5074402;28;20129;-37
2023/01/17 03:22:07;;;;;;;3.78;0.68;;;2.70;99.90;;;;;;5074039;28;20059;-35
2023/01/17 03:24:33;;;;;;;6.47;0.68;;;2.70;99.90;;;;;;5074409;28;20074;-33
2023/01/17 03:26:58;;;;;;;5.88;0.40;;;2.70;99.90;;;;;;5075293;28;20047;-36
2023/01/17 03:29:24;;;;;;;3.30;0.55;;;2.60;99.90;;;;;;5075220;28;20081;-37
2023/01/17 03:31:50;;;;;;;5.45;0.43;;;2.60;99.90;;;;;;5075106;28;20071;-31
2023/01/17 03:34:15;;;;;;;2.28;0.45;;;2.50;99.90;;;;;;5072486;28;20095;-37
2023/01/17 03:36:41;;;;;;;1.38;0.52;;;2.50;99.90;;;;;;5072265;28;20464;-36
2023/01/17 03:39:06;;;;;;;6.68;0.30;;;2.60;99.90;;;;;;5074032;28;20021;-37
2023/01/17 03:41:32;;;;;;;2.88;0.25;;;2.50;99.90;;;;;;5074622;28;20472;-33
2023/01/17 03:43:58;;;;;;;3.05;0.40;;;2.50;99.90;;;;;;5074803;28;20060;-37
2023/01/17 03:46:26;;;;;;;9.57;0.40;;;2.50;99.90;;;;;;5074048;28;20393;-36
2023/01/17 03:48:52;;;;;;;2.40;0.52;;;2.60;99.90;;;;;;5075091;28;20033;-32
2023/01/17 03:51:17;;;;;;;5.03;0.57;;;2.60;99.90;;;;;;5074119;28;20052;-38
2023/01/17 03:53:45;;;;;;;2.75;0.52;;;2.60;99.90;;;;;;5074673;28;20442;-33
2023/01/17 03:56:11;;;;;;;1.27;0.52;;;2.60;99.90;;;;;;5072864;28;20484;-37
2023/01/17 03:58:37;;;;;;;2.65;0.30;;;2.70;99.90;;;;;;5074592;28;20431;-35
2023/01/17 04:01:03;;;;;;;1.10;0.38;;;2.70;99.90;;;;;;5074663;28;20107;-35
2023/01/17 04:03:29;;;;;;;2.35;0.90;;;2.80;99.90;;;;;;5074870;28;20508;-33
2023/01/17 04:05:54;;;;;;;0.95;0.28;;;2.70;99.90;;;;;;5073006;28;20029;-33
2023/01/17 04:08:20;;;;;;;4.03;0.45;;;2.60;99.90;;;;;;5074612;28;20419;-37
2023/01/17 04:10:46;;;;;;;0.50;0.30;;;2.60;99.90;;;;;;5070418;28;20488;-39
2023/01/17 04:13:12;;;;;;;1.88;0.40;;;2.50;99.90;;;;;;5069403;28;20033;-35
2023/01/17 04:15:38;;;;;;;3.45;0.40;;;2.40;99.90;;;;;;5073073;28;20032;-38
2023/01/17 04:18:05;;;;;;;4.57;0.75;;;2.40;99.90;;;;;;5074458;28;20496;-36
2023/01/17 04:20:34;;;;;;;0.63;0.10;;;2.30;99.90;;;;;;5072704;28;20020;-38
2023/01/17 04:23:00;;;;;;;2.88;0.30;;;2.30;99.90;;;;;;5073677;28;20492;-34
2023/01/17 04:25:26;;;;;;;1.95;0.20;;;2.30;99.90;;;;;;5071473;28;20033;-37
2023/01/17 04:27:52;;;;;;;3.75;0.38;;;2.30;99.90;;;;;;5073045;28;20034;-31
2023/01/17 04:30:18;;;;;;;4.40;1.25;;;2.30;99.90;;;;;;5072371;28;20029;-35
2023/01/17 04:32:44;;;;;;;0.20;0.20;;;2.30;99.90;;;;;;5073514;28;20036;-33
2023/01/17 04:35:10;;;;;;;1.83;0.47;;;2.30;99.90;;;;;;5069910;28;20121;-35
2023/01/17 04:37:35;;;;;;;0.43;0.20;;;2.20;99.90;;;;;;5070706;28;20476;-37
2023/01/17 04:40:02;;;;;;;3.83;0.40;;;2.20;99.90;;;;;;5071450;28;20028;-35
2023/01/17 04:42:28;;;;;;;0.25;0.20;;;2.20;99.90;;;;;;5072444;28;20499;-38
2023/01/17 04:44:53;;;;;;;10.68;0.30;;;2.10;99.90;;;;;;5073144;28;20040;-34
2023/01/17 04:47:19;;;;;;;4.15;0.30;;;2.10;99.90;;;;;;5073113;28;20024;-37
2023/01/17 04:49:44;;;;;;;2.63;0.32;;;2.10;99.90;;;;;;5072786;28;20035;-36
2023/01/17 04:52:13;;;;;;;2.15;0.22;;;2.10;99.90;;;;;;5068107;28;20059;-35
2023/01/17 04:54:40;;;;;;;5.00;0.38;;;2.10;99.90;;;;;;5071658;28;20503;-32
2023/01/17 04:57:06;;;;;;;0.20;0.13;;;2.00;99.90;;;;;;5072493;28;20016;-37
2023/01/17 04:59:31;;;;;;;1.42;0.30;;;2.00;99.90;;;;;;5070934;28;20028;-35
2023/01/17 05:01:57;;;;;;;7.88;0.30;;;2.10;99.90;;;;;;5072328;28;20040;-38
2023/01/17 05:04:23;;;;;;;4.78;0.32;;;2.00;99.90;;;;;;5072388;28;20024;-40
2023/01/17 05:06:48;;;;;;;3.72;0.40;;;2.00;99.90;;;;;;5070336;28;20396;-40
2023/01/17 05:09:14;;;;;;;2.17;0.30;;;2.00;99.90;;;;;;5071741;28;20083;-37
2023/01/17 05:11:40;;;;;;;0.50;0.30;;;2.00;99.90;;;;;;5071796;28;20024;-36
2023/01/17 05:14:05;;;;;;;1.85;0.52;;;2.00;99.90;;;;;;5070837;28;20542;-34
2023/01/17 05:16:31;;;;;;;2.58;0.20;;;2.00;99.90;;;;;;5070886;28;20059;-40
2023/01/17 05:18:57;;;;;;;0.88;0.30;;;2.00;99.90;;;;;;5072344;28;20016;-33
2023/01/17 05:21:22;;;;;;;5.88;0.30;;;2.00;99.90;;;;;;5071449;28;20362;-37
2023/01/17 05:23:48;;;;;;;2.05;0.50;;;2.00;99.90;;;;;;5072443;28;20020;-33
2023/01/17 05:26:14;;;;;;;1.23;0.30;;;2.00;99.90;;;;;;5071442;28;20606;-34
2023/01/17 05:28:39;;;;;;;0.20;0.20;;;2.10;99.90;;;;;;5073353;28;20485;-48
2023/01/17 05:31:07;;;;;;;5.00;0.47;;;2.20;99.90;;;;;;5073283;28;20508;-49
2023/01/17 05:33:33;;;;;;;1.73;0.52;;;2.20;99.90;;;;;;5072918;28;20082;-49
2023/01/17 05:35:59;;;;;;;4.80;0.57;;;2.30;99.90;;;;;;5071065;28;20048;-36
2023/01/17 05:38:24;;;;;;;3.85;0.50;;;2.30;99.90;;;;;;5071340;28;20028;-40
2023/01/17 05:40:50;;;;;;;4.07;0.77;;;2.30;99.90;;;;;;5070964;28;20109;-40
2023/01/17 05:43:16;;;;;;;2.17;0.30;;;2.30;99.90;;;;;;5071851;28;20033;-41
2023/01/17 05:45:41;;;;;;;3.13;1.27;;;2.30;99.90;;;;;;5072646;28;20106;-41
2023/01/17 05:48:08;;;;;;;1.27;0.43;;;2.20;99.90;;;;;;5072849;28;20032;-40
2023/01/17 05:50:36;;;;;;;8.88;0.40;;;2.20;99.90;;;;;;5072168;28;21571;-40
2023/01/17 05:53:11;;;;;;;11.57;1.00;;;2.20;99.90;;;;;;5073178;28;20472;-39
2023/01/17 05:55:37;;;;;;;0.63;0.50;;;2.20;99.90;;;;;;5071917;28;20086;-40
2023/01/17 05:58:04;;;;;;;1.55;0.43;;;2.10;99.90;;;;;;5073108;28;20473;-41
2023/01/17 06:00:30;;;;;;;6.53;0.85;;;2.20;99.90;;;;;;5072838;28;20029;-43
2023/01/17 06:02:57;;;;;;;5.63;0.70;;;2.10;99.90;;;;;;5072740;28;20032;-39
2023/01/17 06:05:24;;;;;;;0.70;0.57;;;2.10;99.90;;;;;;5072737;28;20170;-43
2023/01/17 06:07:50;;;;;;;1.77;0.45;;;2.10;99.90;;;;;;5071899;28;20028;-36
2023/01/17 06:10:18;;;;;;;3.45;0.85;;;2.00;99.90;;;;;;5071737;28;20028;-37
2023/01/17 06:12:44;;;;;;;2.78;0.63;;;2.00;99.90;;;;;;5072259;28;20033;-38
2023/01/17 06:15:11;;;;;;;0.50;0.30;;;1.90;99.90;;;;;;5072773;28;20476;-35
2023/01/17 06:17:37;;;;;;;12.68;0.93;;;2.00;99.90;;;;;;5068484;28;20031;-35
2023/01/17 06:20:05;;;;;;;4.28;0.70;;;2.00;99.90;;;;;;5068341;28;20334;-36
2023/01/17 06:22:31;;;;;;;7.32;1.02;;;1.90;99.90;;;;;;5068081;28;20040;-37
2023/01/17 06:24:56;;;;;;;6.47;0.80;;;1.80;99.90;;;;;;5070764;28;20044;-37
2023/01/17 06:27:22;;;;;;;4.57;0.60;;;1.80;99.90;;;;;;5070606;28;20368;-36
2023/01/17 06:29:48;;;;;;;5.55;0.90;;;1.80;99.90;;;;;;5073511;28;20036;-36
2023/01/17 06:32:13;;;;;;;1.83;0.77;;;1.80;99.90;;;;;;5072688;28;20116;-48
2023/01/17 06:34:40;;;;;;;4.68;0.80;;;1.80;99.90;;;;;;5076098;28;20024;-47
2023/01/17 06:37:06;;;;;;;4.85;0.85;;;1.80;99.90;;;;;;5076432;28;20540;-48
2023/01/17 06:39:31;;;;;;;2.58;0.80;;;1.80;99.90;;;;;;5073191;28;20086;-48
2023/01/17 06:41:57;;;;;;;4.18;0.70;;;1.80;99.90;;;;;;5073316;28;20044;-40
2023/01/17 06:44:23;;;;;;;1.33;0.80;;;1.80;99.90;;;;;;5073101;28;20443;-40
2023/01/17 06:46:49;;;;;;;3.03;0.80;;;1.80;99.90;;;;;;5075080;28;20017;-38
2023/01/17 06:49:14;;;;;;;8.43;1.58;;;1.80;99.90;;;;;;5089613;28;20399;-42
2023/01/17 06:51:40;;;;;;;1.35;0.88;;;1.80;99.90;;;;;;5074175;28;20028;-38
2023/01/17 06:54:06;;;;;;;1.95;0.70;;;1.80;99.90;;;;;;5075222;28;20112;-34
2023/01/17 06:56:32;;;;;;;9.20;0.57;;;1.90;99.90;;;;;;5075647;28;20048;-40
2023/01/17 06:58:58;;;;;;;9.40;0.90;;;1.80;99.90;;;;;;5073925;28;20028;-44
2023/01/17 07:01:24;;;;;;;3.70;0.95;;;1.80;99.90;;;;;;5072043;28;20094;-40
2023/01/17 07:03:51;;;;;;;9.82;0.80;;;1.70;99.90;;;;;;5074525;28;20032;-41
2023/01/17 07:06:17;;;;;;;9.95;0.80;;;1.70;99.90;;;;;;5075860;28;20468;-35
2023/01/17 07:08:42;;;;;;;4.18;0.98;;;1.70;99.90;;;;;;5070836;28;20032;-36
2023/01/17 07:11:09;;;;;;;3.03;0.85;;;1.80;99.90;;;;;;5074813;28;20423;-36
2023/01/17 07:13:36;;;;;;;2.58;1.08;;;1.70;99.90;;;;;;5072058;28;20032;-34
2023/01/17 07:16:03;;;;;;;3.70;1.03;;;1.70;99.90;;;;;;5075823;28;20032;-38
2023/01/17 07:18:30;;;;;;;6.38;1.50;;;1.70;99.90;;;;;;5075186;28;20029;-33
2023/01/17 07:20:55;;;;;;;1.33;0.90;;;1.70;99.90;;;;;;5072357;28;20028;-38
2023/01/17 07:23:23;;;;;;;0.98;0.75;;;1.70;99.90;;;;;;5075526;28;20040;-35
2023/01/17 07:25:57;;;;;;;0.70;0.50;;;1.70;99.90;;;;;;5073142;28;20135;-36
2023/01/17 07:28:25;;;;;;;8.52;0.93;;;1.70;99.90;;;;;;5074312;28;20036;-36
2023/01/17 07:30:51;;;;;;;1.47;1.10;;;1.70;99.90;;;;;;5072352;28;20139;-40
2023/01/17 07:33:17;;;;;;;12.27;1.85;;;1.70;99.90;;;;;;5072773;28;20025;-36
2023/01/17 07:35:43;;;;;;;8.43;1.08;;;1.70;99.90;;;;;;5072646;28;20028;-36
2023/01/17 07:38:16;;;;;;;4.90;1.40;;;1.70;99.90;;;;;;5072617;28;20035;-38
2023/01/17 07:40:42;;;;;;;5.00;1.38;;;1.70;99.90;;;;;;5070131;28;20027;-35
2023/01/17 07:43:12;;;;;;;18.55;1.05;;;1.70;99.90;;;;;;5069743;28;20074;-38
2023/01/17 07:45:49;;;;;;;8.88;0.75;;;1.70;99.90;;;;;;5069144;28;20527;-36
2023/01/17 07:48:15;;;;;;;6.03;1.00;;;1.80;99.90;;;;;;5072981;28;20476;-36
2023/01/17 07:50:41;;;;;;;4.22;0.88;;;1.80;99.90;;;;;;5073838;28;20036;-37
2023/01/17 07:53:06;;;;;;;2.25;0.80;;;1.80;99.90;;;;;;5064894;28;20498;-34
2023/01/17 07:55:32;;;;;;;3.90;1.00;;;1.80;99.90;;;;;;5070996;28;20437;-37
2023/01/17 07:57:58;;;;;;;6.90;0.95;;;1.90;99.90;;;;;;5073341;28;20396;-34
2023/01/17 08:00:26;;;;;;;9.63;1.45;;;1.80;99.90;;;;;;5073551;28;20056;-37
2023/01/17 08:03:00;;;;;;;3.38;0.63;;;1.90;99.90;;;;;;5068459;28;20476;-39
2023/01/17 08:05:27;;;;;;;5.75;1.25;;;1.90;99.90;;;;;;5066252;28;20024;-36
2023/01/17 08:07:53;;;;;;;2.53;1.00;;;1.90;99.90;;;;;;5068163;28;20429;-35
2023/01/17 08:10:18;;;;;;;2.58;1.35;;;2.00;99.90;;;;;;5071824;28;20070;-37
2023/01/17 08:12:48;;;;;;;4.35;0.60;;;2.00;99.90;;;;;;5068260;28;20417;-49
2023/01/17 08:15:17;;;;;;;4.28;1.00;;;2.00;99.90;;;;;;5069687;28;20048;-40
2023/01/17 08:17:47;;;;;;;5.32;0.90;;;2.00;99.90;;;;;;5069412;28;20473;-38
2023/01/17 08:20:13;;;;;;;3.42;0.70;;;2.00;99.90;;;;;;5067854;28;20024;-39
2023/01/17 08:22:39;;;;;;;11.27;1.08;;;2.00;99.90;;;;;;5065616;28;20040;-39
2023/01/17 08:25:05;;;;;;;2.47;0.90;;;2.00;99.90;;;;;;5070686;28;20384;-39
2023/01/17 08:27:30;;;;;;;1.52;1.10;;;2.00;99.90;;;;;;5065551;28;20036;-38
2023/01/17 08:29:56;;;;;;;1.17;0.82;;;2.00;99.90;;;;;;5063440;28;20051;-40
2023/01/17 08:32:22;;;;;;;9.45;1.30;;;2.10;99.90;;;;;;5073388;28;20116;-39
2023/01/17 08:34:47;;;;;;;13.07;1.10;;;2.10;99.90;;;;;;5071330;28;20029;-40
2023/01/17 08:37:13;;;;;;;6.18;2.42;;;2.10;99.90;;;;;;5071169;28;20044;-40
2023/01/17 08:39:39;;;;;;;2.67;0.85;;;2.10;99.90;;;;;;5068649;28;20526;-41
2023/01/17 08:42:05;;;;;;;1.13;0.80;;;2.10;99.90;;;;;;5071297;28;20498;-40
2023/01/17 08:44:30;;;;;;;9.15;1.10;;;2.10;99.90;;;;;;5072032;28;20037;-40
2023/01/17 08:46:56;;;;;;;7.55;1.58;;;2.10;99.90;;;;;;5072897;28;20028;-40
2023/01/17 08:49:21;;;;;;;1.13;0.57;;;2.10;99.90;;;;;;5073104;28;20028;-40
2023/01/17 08:51:47;;;;;;;3.35;1.20;;;2.10;99.90;;;;;;5072594;28;20472;-42
2023/01/17 08:54:14;;;;;;;3.60;0.98;;;2.10;99.90;;;;;;5067760;28;20166;-37
2023/01/17 08:56:41;;;;;;;8.30;1.85;;;2.10;99.90;;;;;;5071509;28;20028;-37
2023/01/17 08:59:10;;;;;;;7.72;0.85;;;2.10;99.90;;;;;;5072541;28;20028;-34
2023/01/17 09:01:39;;;;;;;2.78;0.77;;;2.10;99.90;;;;;;5069337;28;20070;-34
2023/01/17 09:04:06;;;;;;;3.05;0.90;;;2.00;99.90;;;;;;5072656;28;20496;-37
2023/01/17 09:06:34;;;;;;;1.75;0.88;;;2.00;99.90;;;;;;5068326;28;20032;-38
2023/01/17 09:09:00;;;;;;;8.80;0.93;;;2.10;99.90;;;;;;5069460;28;20016;-38
2023/01/17 09:11:26;;;;;;;1.10;0.68;;;2.10;99.90;;;;;;5072253;28;20066;-35
2023/01/17 09:13:51;;;;;;;3.55;0.85;;;2.10;99.90;;;;;;5069694;28;20056;-35
2023/01/17 09:16:17;;;;;;;3.00;0.80;;;2.10;99.90;;;;;;5064724;28;20020;-37
2023/01/17 09:18:43;;;;;;;9.68;0.70;;;2.10;99.90;;;;;;5070832;28;20701;-38
2023/01/17 09:21:14;;;;;;;1.23;0.75;;;2.10;99.90;;;;;;5069622;28;20521;-41
2023/01/17 09:23:40;;;;;;;1.75;0.80;;;2.20;99.90;;;;;;5068296;28;20032;-40
2023/01/17 09:28:51;;;;;;;9.95;1.40;;;2.30;99.90;;;;;;5069779;28;20407;-40
2023/01/17 09:31:20;;;;;;;3.33;0.82;;;2.30;99.90;;;;;;5066141;28;20419;-41
2023/01/17 09:33:49;;;;;;;2.80;0.82;;;2.40;99.90;;;;;;5071283;28;20032;-41
2023/01/17 09:36:16;;;;;;;5.53;1.15;;;2.50;99.90;;;;;;5069554;28;20033;-41
2023/01/17 09:38:41;;;;;;;11.77;1.10;;;2.50;99.90;;;;;;5070016;28;20028;-40
2023/01/17 09:41:26;;;;;;;10.27;0.93;;;2.60;99.90;;;;;;5070886;28;20481;-39
2023/01/17 09:44:06;;;;;;;4.70;1.10;;;2.70;99.90;;;;;;5057299;28;20029;-41
2023/01/17 09:46:38;;;;;;;1.02;0.95;;;2.70;99.90;;;;;;5071326;28;20463;-40
2023/01/17 09:49:29;;;;;;;6.20;1.02;;;2.80;99.90;;;;;;5072422;28;20029;-39
2023/01/17 09:51:54;;;;;;;2.50;1.23;;;2.90;99.90;;;;;;5067425;28;20055;-35
2023/01/17 09:54:22;;;;;;;15.82;1.50;;;3.00;99.90;;;;;;5070623;28;20495;-38
2023/01/17 09:56:59;;;;;;;10.13;1.38;;;3.00;99.90;;;;;;5071770;28;20128;-40
2023/01/17 09:59:44;;;;;;;1.43;0.83;;;3.00;99.90;;;;;;5071079;28;20103;-42
2023/01/17 10:02:40;;;;;;;0.98;0.82;;;3.10;99.90;;;;;;5066372;28;20802;-41
2023/01/17 10:05:15;;;;;;;4.97;1.02;;;3.20;99.90;;;;;;5074081;28;20511;-39
2023/01/17 10:07:58;;;;;;;1.13;1.00;;;3.10;99.90;;;;;;5074793;28;20061;-44
2023/01/17 10:10:34;;;;;;;5.70;1.00;;;3.20;99.90;;;;;;5069649;28;20083;-40
2023/01/17 10:13:50;;;;;;;3.83;0.85;;;3.20;99.90;;;;;;5075969;28;20369;-42
2023/01/17 10:16:30;;;;;;;8.77;1.10;;;3.30;99.90;;;;;;5002507;28;20057;-41
2023/01/17 10:19:07;;;;;;;13.80;1.73;;;3.40;99.90;;;;;;5013196;28;20030;-40
2023/01/17 10:21:45;;;;;;;15.20;1.25;;;3.40;99.90;;;;;;5045588;28;20124;-40
2023/01/17 10:24:19;;;;;;;6.82;1.30;;;3.40;99.90;;;;;;5075791;28;20032;-37
2023/01/17 10:26:51;;;;;;;5.68;1.17;;;3.50;99.90;;;;;;5071878;28;20125;-36
2023/01/17 10:29:18;;;;;;;4.75;1.27;;;3.50;99.90;;;;;;5073731;28;20058;-34
2023/01/17 10:32:01;;;;;;;6.13;2.08;;;3.40;99.90;;;;;;5076253;28;20507;-34
2023/01/17 10:34:26;;;;;;;9.65;1.77;;;3.40;99.90;;;;;;5075653;28;20035;-37
2023/01/17 10:37:04;;;;;;;4.82;1.60;;;3.40;99.90;;;;;;5070355;28;20028;-48
2023/01/17 10:39:31;;;;;;;4.95;1.92;;;3.40;99.90;;;;;;5073343;28;20494;-36
2023/01/17 10:42:05;;;;;;;2.90;1.17;;;3.40;99.90;;;;;;5075046;28;20025;-38
2023/01/17 10:44:54;;;;;;;4.85;1.67;;;3.50;99.90;;;;;;5075245;28;20039;-39
2023/01/17 10:47:23;;;;;;;5.18;1.45;;;3.50;99.90;;;;;;5067799;28;20123;-33
2023/01/17 10:49:57;;;;;;;2.38;1.58;;;3.50;99.90;;;;;;5074854;28;20473;-38
2023/01/17 10:52:52;;;;;;;7.03;2.28;;;3.50;99.90;;;;;;5073000;28;20121;-36
2023/01/17 10:55:42;;;;;;;1.77;1.67;;;3.50;99.90;;;;;;5074845;28;20024;-37
2023/01/17 10:58:12;;;;;;;8.55;2.38;;;3.50;99.90;;;;;;5072900;28;20443;-36
2023/01/17 11:01:05;;;;;;;8.68;2.40;;;3.50;99.90;;;;;;5073149;28;20157;-36
2023/01/17 11:03:32;;;;;;;6.85;2.70;;;3.40;99.90;;;;;;5075233;28;20028;-36
2023/01/17 11:06:23;;;;;;;3.72;1.55;;;3.30;99.90;;;;;;5074396;28;20033;-37
2023/01/17 11:08:57;;;;;;;5.47;2.08;;;3.30;99.90;;;;;;5065891;28;20116;-39
2023/01/17 11:11:30;;;;;;;21.77;2.40;;;3.20;99.90;;;;;;5074102;28;20308;-37
2023/01/17 11:13:59;;;;;;;2.88;2.10;;;3.20;99.90;;;;;;5074339;28;20516;-33
2023/01/17 11:16:30;;;;;;;5.45;1.83;;;3.20;99.90;;;;;;5075051;28;20158;-38
2023/01/17 11:19:17;;;;;;;6.47;2.05;;;3.20;99.90;;;;;;5074588;28;20507;-33
2023/01/17 11:21:56;;;;;;;4.00;1.80;;;3.20;99.90;;;;;;5071144;28;20033;-35
2023/01/17 11:24:44;;;;;;;8.77;2.75;;;3.10;99.90;;;;;;5074883;28;20048;-36
2023/01/17 11:27:22;;;;;;;3.10;2.10;;;3.10;99.90;;;;;;5071215;28;20519;-37
2023/01/17 11:30:22;;;;;;;3.15;1.90;;;3.10;99.90;;;;;;5073654;28;20029;-41
2023/01/17 11:32:52;;;;;;;7.38;2.13;;;3.10;99.90;;;;;;5073993;28;20508;-43
2023/01/17 11:35:20;;;;;;;11.07;2.53;;;3.10;99.90;;;;;;5075142;28;20481;-40
2023/01/17 11:38:09;;;;;;;8.07;2.53;;;3.20;99.90;;;;;;5071023;28;20070;-37
2023/01/17 11:43:30;;;;;;;4.40;2.50;;;3.30;99.90;;;;;;5069376;28;20047;-38
2023/01/17 11:46:12;;;;;;;5.13;2.20;;;3.40;99.90;;;;;;5069928;28;20453;-42
2023/01/17 11:48:38;;;;;;;8.13;2.00;;;3.50;99.90;;;;;;5074546;28;20107;-42
2023/01/17 11:51:17;;;;;;;3.80;2.00;;;3.60;99.90;;;;;;5071479;28;20564;-42
2023/01/17 11:53:47;;;;;;;5.53;1.80;;;3.70;99.90;;;;;;5070816;28;20028;-40
2023/01/17 11:56:34;;;;;;;9.90;2.28;;;3.70;99.90;;;;;;5070892;28;20047;-41
2023/01/17 11:59:30;;;;;;;3.78;1.83;;;3.90;99.90;;;;;;5073906;28;20024;-40
2023/01/17 12:02:30;;;;;;;11.32;2.08;;;3.90;99.90;;;;;;5074170;28;20490;-40
2023/01/17 12:05:17;;;;;;;4.65;1.55;;;3.90;99.90;;;;;;5066041;28;20075;-38
2023/01/17 12:07:59;;;;;;;4.80;1.65;;;3.90;99.90;;;;;;5073677;28;20369;-36
2023/01/17 12:10:41;;;;;;;5.97;1.95;;;4.00;99.90;;;;;;5072642;28;20032;-36
2023/01/17 12:18:57;;;;;;;5.90;1.55;;;4.30;99.90;;;;;;5073619;28;20085;-34
2023/01/17 12:21:50;;;;;;;2.20;1.55;;;4.40;99.90;;;;;;5065143;28;20028;-38
2023/01/17 12:24:39;;;;;;;1.95;0.85;;;4.50;99.90;;;;;;5072538;28;20472;-39
2023/01/17 12:27:46;;;;;;;3.35;1.58;;;4.50;99.90;;;;;;5072596;28;20499;-34
2023/01/17 12:30:29;;;;;;;2.88;1.45;;;4.60;99.90;;;;;;5067206;28;20558;-39
2023/01/17 12:33:01;;;;;;;1.88;1.35;;;4.60;99.90;;;;;;5073016;28;20461;-40
2023/01/17 12:35:37;;;;;;;5.25;1.48;;;4.60;99.90;;;;;;5068831;28;20029;-37
2023/01/17 12:38:09;;;;;;;2.65;1.13;;;4.70;99.90;;;;;;5070270;28;20392;-38
2023/01/17 12:40:45;;;;;;;2.70;1.17;;;4.60;99.90;;;;;;5072785;28;20480;-36
2023/01/17 12:43:24;;;;;;;2.33;1.25;;;4.70;99.90;;;;;;5072725;28;20024;-34
2023/01/17 12:45:53;;;;;;;6.63;1.35;;;4.70;99.90;;;;;;5071324;28;20048;-36
2023/01/17 12:48:21;;;;;;;2.80;1.35;;;4.80;99.90;;;;;;5073088;28;20516;-38
2023/01/17 12:50:52;;;;;;;;;;;4.80;99.90;;;;;;5069048;28;20025;-35
2023/01/17 12:53:21;;;;;;;7.30;1.75;;;4.80;99.90;;;;;;5069682;28;20384;-36
2023/01/17 12:56:12;;;;;;;4.50;1.40;;;4.90;99.90;;;;;;5072007;28;20060;-38
2023/01/17 12:58:45;;;;;;;5.38;1.75;;;4.90;99.90;;;;;;5072595;28;20115;-38
2023/01/17 13:01:19;;;;;;;4.57;1.45;;;5.00;99.90;;;;;;5072570;28;20020;-39
2023/01/17 13:03:59;;;;;;;6.00;1.48;;;5.00;99.90;;;;;;5072435;28;20112;-34
2023/01/17 13:06:31;;;;;;;1.58;1.30;;;5.00;99.90;;;;;;5072012;28;20544;-33
2023/01/17 13:12:00;;;;;;;1.50;0.93;;;5.00;99.90;;;;;;5073391;28;20039;-42
2023/01/17 13:14:26;;;;;;;1.90;1.50;;;5.10;99.90;;;;;;5071427;28;20028;-41
2023/01/17 13:17:01;;;;;;;5.10;1.38;;;5.10;99.90;;;;;;5069629;28;20032;-42
2023/01/17 13:19:42;;;;;;;3.50;1.30;;;5.10;99.90;;;;;;5069884;28;20042;-41
2023/01/17 13:22:16;;;;;;;5.10;0.90;;;5.10;99.90;;;;;;5071617;28;20051;-41
2023/01/17 13:25:16;;;;;;;3.25;1.35;;;5.20;99.90;;;;;;5072559;28;20103;-41
2023/01/17 13:28:02;;;;;;;3.85;0.60;;;5.20;99.90;;;;;;5070129;28;20028;-39
2023/01/17 13:30:36;;;;;;;2.63;1.20;;;5.20;99.90;;;;;;5069391;28;20495;-39
2023/01/17 13:33:26;;;;;;;1.05;0.73;;;5.10;99.90;;;;;;5065551;28;20024;-44
2023/01/17 13:35:56;;;;;;;5.63;1.08;;;5.20;99.90;;;;;;5067013;28;20052;-39
2023/01/17 13:38:56;;;;;;;5.82;1.08;;;5.20;99.90;;;;;;5069831;28;20035;-36
2023/01/17 13:41:35;;;;;;;1.38;0.98;;;5.20;99.90;;;;;;5073027;28;20031;-38
2023/01/17 13:46:52;;;;;;;4.40;0.90;;;5.20;99.90;;;;;;5069742;28;20055;-37
2023/01/17 13:49:32;;;;;;;2.83;1.02;;;5.20;99.90;;;;;;5060125;28;20496;-39
2023/01/17 13:52:09;;;;;;;1.80;0.85;;;5.20;99.90;;;;;;5070174;28;20040;-37
2023/01/17 13:54:42;;;;;;;2.92;1.10;;;5.30;99.90;;;;;;5069591;28;20077;-38
2023/01/17 13:57:27;;;;;;;2.15;1.08;;;5.30;99.90;;;;;;5067501;28;20487;-38
2023/01/17 13:59:57;;;;;;;1.38;0.75;;;5.30;99.90;;;;;;5072996;28;20598;-40
2023/01/17 14:02:32;;;;;;;2.17;0.90;;;5.40;99.90;;;;;;5070582;28;20025;-40
2023/01/17 14:05:14;;;;;;;1.95;1.13;;;5.40;99.90;;;;;;5055527;28;20019;-36
2023/01/17 14:07:52;;;;;;;1.90;0.90;;;5.40;99.90;;;;;;5070206;28;20104;-39
2023/01/17 14:10:25;;;;;;;3.33;1.08;;;5.40;99.90;;;;;;5071482;28;20362;-39
2023/01/17 14:12:50;;;;;;;1.85;1.13;;;5.30;99.90;;;;;;5070330;28;20451;-35
2023/01/17 14:15:28;;;;;;;4.65;1.15;;;5.40;99.90;;;;;;5072451;28;20021;-39
2023/01/17 14:17:57;;;;;;;1.10;1.00;;;5.30;99.90;;;;;;5067753;28;20036;-37
2023/01/17 14:20:28;;;;;;;2.42;1.00;;;5.40;99.90;;;;;;5069736;28;20115;-36
2023/01/17 14:22:57;;;;;;;3.17;1.00;;;5.40;99.90;;;;;;5070360;28;20466;-37
2023/01/17 14:25:28;;;;;;;5.35;1.30;;;5.40;99.90;;;;;;5070789;28;20725;-40
2023/01/17 14:28:05;;;;;;;4.50;1.23;;;5.30;99.90;;;;;;5071087;28;20388;-35
2023/01/17 14:30:30;;;;;;;3.50;0.80;;;5.40;99.90;;;;;;5070889;28;20032;-41
2023/01/17 14:33:04;;;;;;;2.65;1.45;;;5.40;99.90;;;;;;5070469;28;20112;-37
2023/01/17 14:35:34;;;;;;;4.72;0.93;;;5.50;99.90;;;;;;5069867;28;20075;-35
2023/01/17 14:38:02;;;;;;;2.03;0.90;;;5.50;99.90;;;;;;5070047;28;20082;-36
2023/01/17 14:40:30;;;;;;;2.45;1.02;;;5.50;99.90;;;;;;5071905;28;20027;-40
2023/01/17 14:43:05;;;;;;;0.57;0.55;;;5.50;99.90;;;;;;5071603;28;20031;-41
2023/01/17 14:45:33;;;;;;;6.28;1.00;;;5.40;99.90;;;;;;5078070;28;20040;-40
2023/01/17 14:48:02;;;;;;;1.85;0.80;;;5.40;99.90;;;;;;5066723;28;20518;-38
2023/01/17 14:50:39;;;;;;;1.88;1.10;;;5.30;99.90;;;;;;5070231;28;20056;-38
2023/01/17 14:53:07;;;;;;;1.38;1.10;;;5.30;99.90;;;;;;5074178;28;20031;-39
2023/01/17 14:55:33;;;;;;;4.00;0.82;;;5.20;99.90;;;;;;5075079;28;20354;-39
2023/01/17 14:57:58;;;;;;;1.65;0.85;;;5.20;99.90;;;;;;5072120;28;20074;-37
2023/01/17 15:00:27;;;;;;;1.67;1.45;;;5.10;99.90;;;;;;5073467;28;20021;-35
2023/01/17 15:02:54;;;;;;;4.75;0.80;;;5.10;99.90;;;;;;5074018;28;20503;-41